sensor_id;sensor_type;location;lat;lon;timestamp;pressure;altitude;pressure_sealevel;temperature;humidity
77954;BME280;67151;52.544;6.034;2023-05-14T00:00:02;102010;;;22.9;40.8
77954;BME280;67151;52.544;6.034;2023-05-14T00:00:17;102020;;;22.9;40.6
77954;BME280;67151;52.544;6.034;2023-05-14T00:00:32;102020;;;22.9;40.6
77954;BME280;67151;52.544;6.034;2023-05-14T00:00:47;102010;;;22.9;41.1
77954;BME280;67151;52.544;6.034;2023-05-14T00:01:02;102020;;;22.9;41
77954;BME280;67151;52.544;6.034;2023-05-14T00:01:17;102010;;;22.9;40.8
77954;BME280;67151;52.544;6.034;2023-05-14T00:01:32;102010;;;22.9;40.9
77954;BME280;67151;52.544;6.034;2023-05-14T00:01:47;102020;;;22.9;40.7
77954;BME280;67151;52.544;6.034;2023-05-14T00:02:02;102010;;;22.9;40.9
77954;BME280;67151;52.544;6.034;2023-05-14T00:02:17;102020;;;22.9;40.9
77954;BME280;67151;52.544;6.034;2023-05-14T00:02:32;102020;;;22.9;40.9
77954;BME280;67151;52.544;6.034;2023-05-14T00:02:47;102010;;;22.9;40.9
77954;BME280;67151;52.544;6.034;2023-05-14T00:03:02;102010;;;22.9;40.9
77954;BME280;67151;52.544;6.034;2023-05-14T00:03:17;102010;;;22.9;41
77954;BME280;67151;52.544;6.034;2023-05-14T00:03:32;102020;;;22.9;41
77954;BME280;67151;52.544;6.034;2023-05-14T00:03:47;102010;;;22.9;41
77954;BME280;67151;52.544;6.034;2023-05-14T00:04:02;102010;;;22.9;41
77954;BME280;67151;52.544;6.034;2023-05-14T00:04:17;102020;;;22.9;41
77954;BME280;67151;52.544;6.034;2023-05-14T00:04:32;102010;;;22.9;41
77954;BME280;67151;52.544;6.034;2023-05-14T00:04:47;102010;;;22.9;41
77954;BME280;67151;52.544;6.034;2023-05-14T00:05:02;102010;;;22.9;40.9
77954;BME280;67151;52.544;6.034;2023-05-14T00:05:17;102010;;;22.9;40.8
77954;BME280;67151;52.544;6.034;2023-05-14T00:05:32;102010;;;22.9;40.8
77954;BME280;67151;52.544;6.034;2023-05-14T00:05:47;102010;;;22.9;40.9
77954;BME280;67151;52.544;6.034;2023-05-14T00:06:02;102010;;;22.9;41
77954;BME280;67151;52.544;6.034;2023-05-14T00:06:17;102000;;;22.9;41
77954;BME280;67151;52.544;6.034;2023-05-14T00:06:32;102010;;;22.9;41.1
77954;BME280;67151;52.544;6.034;2023-05-14T00:06:47;102010;;;22.9;41.1
77954;BME280;67151;52.544;6.034;2023-05-14T00:07:02;102010;;;22.9;41
77954;BME280;67151;52.544;6.034;2023-05-14T00:07:17;102010;;;22.9;41
77954;BME280;67151;52.544;6.034;2023-05-14T00:07:32;102010;;;22.9;40.9
77954;BME280;67151;52.544;6.034;2023-05-14T00:07:47;102000;;;22.9;40.9
77954;BME280;67151;52.544;6.034;2023-05-14T00:08:02;102000;;;22.9;40.8
77954;BME280;67151;52.544;6.034;2023-05-14T00:08:17;102000;;;22.9;40.8
77954;BME280;67151;52.544;6.034;2023-05-14T00:08:32;102000;;;22.9;40.9
77954;BME280;67151;52.544;6.034;2023-05-14T00:08:47;102010;;;22.8;40.9
77954;BME280;67151;52.544;6.034;2023-05-14T00:09:02;102000;;;22.9;40.8
77954;BME280;67151;52.544;6.034;2023-05-14T00:09:17;102000;;;22.9;40.8
77954;BME280;67151;52.544;6.034;2023-05-14T00:09:32;102000;;;22.9;40.8
77954;BME280;67151;52.544;6.034;2023-05-14T00:09:47;102000;;;22.9;40.8
77954;BME280;67151;52.544;6.034;2023-05-14T00:10:02;102000;;;22.9;41
77954;BME280;67151;52.544;6.034;2023-05-14T00:10:17;102010;;;22.9;41
77954;BME280;67151;52.544;6.034;2023-05-14T00:10:32;102000;;;22.9;40.8
77954;BME280;67151;52.544;6.034;2023-05-14T00:10:47;102000;;;22.8;40.9
77954;BME280;67151;52.544;6.034;2023-05-14T00:11:02;102000;;;22.8;40.9
77954;BME280;67151;52.544;6.034;2023-05-14T00:11:17;102000;;;22.9;41
77954;BME280;67151;52.544;6.034;2023-05-14T00:11:32;102000;;;22.9;40.9
77954;BME280;67151;52.544;6.034;2023-05-14T00:11:47;101990;;;22.9;40.9
77954;BME280;67151;52.544;6.034;2023-05-14T00:12:02;102000;;;22.9;41
77954;BME280;67151;52.544;6.034;2023-05-14T00:12:17;102000;;;22.9;41.1
77954;BME280;67151;52.544;6.034;2023-05-14T00:12:32;102000;;;22.9;41
77954;BME280;67151;52.544;6.034;2023-05-14T00:12:47;102000;;;22.9;41
77954;BME280;67151;52.544;6.034;2023-05-14T00:13:02;102000;;;22.9;41
77954;BME280;67151;52.544;6.034;2023-05-14T00:13:17;102000;;;22.9;41
77954;BME280;67151;52.544;6.034;2023-05-14T00:13:32;102000;;;22.9;41
77954;BME280;67151;52.544;6.034;2023-05-14T00:13:47;102000;;;22.9;41
77954;BME280;67151;52.544;6.034;2023-05-14T00:14:02;102000;;;22.9;41
77954;BME280;67151;52.544;6.034;2023-05-14T00:14:17;102000;;;22.9;40.9
77954;BME280;67151;52.544;6.034;2023-05-14T00:14:32;102000;;;22.9;41
77954;BME280;67151;52.544;6.034;2023-05-14T00:14:47;102000;;;22.9;40.9
77954;BME280;67151;52.544;6.034;2023-05-14T00:15:02;101990;;;22.9;41
77954;BME280;67151;52.544;6.034;2023-05-14T00:15:17;102000;;;22.9;41
77954;BME280;67151;52.544;6.034;2023-05-14T00:15:32;102000;;;22.9;41.1
77954;BME280;67151;52.544;6.034;2023-05-14T00:15:47;101990;;;22.9;41
77954;BME280;67151;52.544;6.034;2023-05-14T00:16:02;101990;;;22.9;41.1
77954;BME280;67151;52.544;6.034;2023-05-14T00:16:17;101990;;;22.9;41
77954;BME280;67151;52.544;6.034;2023-05-14T00:16:32;101990;;;22.9;40.9
77954;BME280;67151;52.544;6.034;2023-05-14T00:16:47;101990;;;22.9;40.9
77954;BME280;67151;52.544;6.034;2023-05-14T00:17:02;101990;;;22.9;40.9
77954;BME280;67151;52.544;6.034;2023-05-14T00:17:17;101990;;;22.9;40.8
77954;BME280;67151;52.544;6.034;2023-05-14T00:17:32;102000;;;22.9;40.8
77954;BME280;67151;52.544;6.034;2023-05-14T00:17:47;101990;;;22.9;40.9
77954;BME280;67151;52.544;6.034;2023-05-14T00:18:02;101990;;;22.9;41.1
77954;BME280;67151;52.544;6.034;2023-05-14T00:18:17;101990;;;22.8;41
77954;BME280;67151;52.544;6.034;2023-05-14T00:18:32;101990;;;22.9;41
77954;BME280;67151;52.544;6.034;2023-05-14T00:18:47;102000;;;22.9;41
77954;BME280;67151;52.544;6.034;2023-05-14T00:19:02;101980;;;22.8;41
77954;BME280;67151;52.544;6.034;2023-05-14T00:19:17;101990;;;22.8;41.2
77954;BME280;67151;52.544;6.034;2023-05-14T00:19:32;101990;;;22.9;41
77954;BME280;67151;52.544;6.034;2023-05-14T00:19:47;101990;;;22.9;41
77954;BME280;67151;52.544;6.034;2023-05-14T00:20:02;101990;;;22.9;41
77954;BME280;67151;52.544;6.034;2023-05-14T00:20:17;101990;;;22.9;40.9
77954;BME280;67151;52.544;6.034;2023-05-14T00:20:32;101990;;;22.8;41
77954;BME280;67151;52.544;6.034;2023-05-14T00:20:47;101990;;;22.9;41
77954;BME280;67151;52.544;6.034;2023-05-14T00:21:02;101990;;;22.8;41.1
77954;BME280;67151;52.544;6.034;2023-05-14T00:21:17;101990;;;22.9;41
77954;BME280;67151;52.544;6.034;2023-05-14T00:21:32;101990;;;22.9;41
77954;BME280;67151;52.544;6.034;2023-05-14T00:21:47;101990;;;22.8;40.9
77954;BME280;67151;52.544;6.034;2023-05-14T00:22:02;101980;;;22.8;41.2
77954;BME280;67151;52.544;6.034;2023-05-14T00:22:17;101990;;;22.8;41.8
77954;BME280;67151;52.544;6.034;2023-05-14T00:22:32;101990;;;22.8;41.1
77954;BME280;67151;52.544;6.034;2023-05-14T00:22:47;101990;;;22.8;41.1
77954;BME280;67151;52.544;6.034;2023-05-14T00:23:02;101990;;;22.8;41
77954;BME280;67151;52.544;6.034;2023-05-14T00:23:17;101980;;;22.8;41
77954;BME280;67151;52.544;6.034;2023-05-14T00:23:32;101980;;;22.8;41
77954;BME280;67151;52.544;6.034;2023-05-14T00:23:47;101990;;;22.8;41
77954;BME280;67151;52.544;6.034;2023-05-14T00:24:02;101990;;;22.8;41
77954;BME280;67151;52.544;6.034;2023-05-14T00:24:17;101980;;;22.9;41
77954;BME280;67151;52.544;6.034;2023-05-14T00:24:32;101990;;;22.9;41
77954;BME280;67151;52.544;6.034;2023-05-14T00:24:47;101980;;;22.8;40.9
77954;BME280;67151;52.544;6.034;2023-05-14T00:25:02;101990;;;22.8;40.8
77954;BME280;67151;52.544;6.034;2023-05-14T00:25:17;101980;;;22.8;40.9
77954;BME280;67151;52.544;6.034;2023-05-14T00:25:32;101990;;;22.8;40.9
77954;BME280;67151;52.544;6.034;2023-05-14T00:25:47;101980;;;22.8;40.9
77954;BME280;67151;52.544;6.034;2023-05-14T00:26:02;101980;;;22.8;41.1
77954;BME280;67151;52.544;6.034;2023-05-14T00:26:17;101980;;;22.8;41
77954;BME280;67151;52.544;6.034;2023-05-14T00:26:32;101990;;;22.9;41
77954;BME280;67151;52.544;6.034;2023-05-14T00:26:47;101980;;;22.8;41
77954;BME280;67151;52.544;6.034;2023-05-14T00:27:02;101990;;;22.8;41
77954;BME280;67151;52.544;6.034;2023-05-14T00:27:17;101980;;;22.8;41
77954;BME280;67151;52.544;6.034;2023-05-14T00:27:32;101980;;;22.8;41
77954;BME280;67151;52.544;6.034;2023-05-14T00:27:47;101980;;;22.8;40.9
77954;BME280;67151;52.544;6.034;2023-05-14T00:28:02;101980;;;22.8;40.8
77954;BME280;67151;52.544;6.034;2023-05-14T00:28:17;101980;;;22.8;41
77954;BME280;67151;52.544;6.034;2023-05-14T00:28:32;101980;;;22.8;41
77954;BME280;67151;52.544;6.034;2023-05-14T00:28:47;101980;;;22.8;41
77954;BME280;67151;52.544;6.034;2023-05-14T00:29:02;101980;;;22.8;41.1
77954;BME280;67151;52.544;6.034;2023-05-14T00:29:17;101980;;;22.8;41.1
77954;BME280;67151;52.544;6.034;2023-05-14T00:29:32;101980;;;22.8;41.1
77954;BME280;67151;52.544;6.034;2023-05-14T00:29:47;101980;;;22.8;41.1
77954;BME280;67151;52.544;6.034;2023-05-14T00:30:03;101980;;;22.8;41.1
77954;BME280;67151;52.544;6.034;2023-05-14T00:30:17;101980;;;22.8;41
77954;BME280;67151;52.544;6.034;2023-05-14T00:30:32;101980;;;22.8;41
77954;BME280;67151;52.544;6.034;2023-05-14T00:30:47;101980;;;22.8;41.1
77954;BME280;67151;52.544;6.034;2023-05-14T00:31:02;101980;;;22.8;41.1
77954;BME280;67151;52.544;6.034;2023-05-14T00:31:17;101980;;;22.8;41
77954;BME280;67151;52.544;6.034;2023-05-14T00:31:32;101980;;;22.8;40.9
77954;BME280;67151;52.544;6.034;2023-05-14T00:31:47;101980;;;22.8;41
77954;BME280;67151;52.544;6.034;2023-05-14T00:32:02;101980;;;22.8;41.1
77954;BME280;67151;52.544;6.034;2023-05-14T00:32:17;101980;;;22.8;41
77954;BME280;67151;52.544;6.034;2023-05-14T00:32:32;101980;;;22.9;41
77954;BME280;67151;52.544;6.034;2023-05-14T00:32:47;101980;;;22.9;41
77954;BME280;67151;52.544;6.034;2023-05-14T00:33:02;101980;;;22.8;40.9
77954;BME280;67151;52.544;6.034;2023-05-14T00:33:17;101980;;;22.8;40.9
77954;BME280;67151;52.544;6.034;2023-05-14T00:33:32;101980;;;22.8;40.9
77954;BME280;67151;52.544;6.034;2023-05-14T00:33:47;101980;;;22.8;41
77954;BME280;67151;52.544;6.034;2023-05-14T00:34:02;101970;;;22.8;41.1
77954;BME280;67151;52.544;6.034;2023-05-14T00:34:17;101970;;;22.8;41.1
77954;BME280;67151;52.544;6.034;2023-05-14T00:34:32;101980;;;22.8;41
77954;BME280;67151;52.544;6.034;2023-05-14T00:34:47;101980;;;22.8;41
77954;BME280;67151;52.544;6.034;2023-05-14T00:35:02;101970;;;22.8;41.7
77954;BME280;67151;52.544;6.034;2023-05-14T00:35:17;101970;;;22.8;41.3
77954;BME280;67151;52.544;6.034;2023-05-14T00:35:32;101980;;;22.8;42.2
77954;BME280;67151;52.544;6.034;2023-05-14T00:35:47;101980;;;22.8;41.2
77954;BME280;67151;52.544;6.034;2023-05-14T00:36:02;101970;;;22.8;41.1
77954;BME280;67151;52.544;6.034;2023-05-14T00:36:17;101980;;;22.8;41.1
77954;BME280;67151;52.544;6.034;2023-05-14T00:36:32;101970;;;22.8;41.1
77954;BME280;67151;52.544;6.034;2023-05-14T00:36:47;101970;;;22.8;41.2
77954;BME280;67151;52.544;6.034;2023-05-14T00:37:02;101970;;;22.8;41.2
77954;BME280;67151;52.544;6.034;2023-05-14T00:37:17;101970;;;22.8;41
77954;BME280;67151;52.544;6.034;2023-05-14T00:37:32;101970;;;22.8;41
77954;BME280;67151;52.544;6.034;2023-05-14T00:37:47;101970;;;22.8;41
77954;BME280;67151;52.544;6.034;2023-05-14T00:38:02;101970;;;22.8;41
77954;BME280;67151;52.544;6.034;2023-05-14T00:38:17;101970;;;22.8;41
77954;BME280;67151;52.544;6.034;2023-05-14T00:38:32;101960;;;22.8;41
77954;BME280;67151;52.544;6.034;2023-05-14T00:38:47;101970;;;22.8;40.9
77954;BME280;67151;52.544;6.034;2023-05-14T00:39:02;101970;;;22.8;40.8
77954;BME280;67151;52.544;6.034;2023-05-14T00:39:17;101970;;;22.8;40.8
77954;BME280;67151;52.544;6.034;2023-05-14T00:39:32;101980;;;22.9;40.9
77954;BME280;67151;52.544;6.034;2023-05-14T00:39:47;101970;;;22.9;41
77954;BME280;67151;52.544;6.034;2023-05-14T00:40:02;101960;;;22.8;41
77954;BME280;67151;52.544;6.034;2023-05-14T00:40:17;101960;;;22.8;40.9
77954;BME280;67151;52.544;6.034;2023-05-14T00:40:32;101970;;;22.8;41
77954;BME280;67151;52.544;6.034;2023-05-14T00:40:47;101970;;;22.8;40.9
77954;BME280;67151;52.544;6.034;2023-05-14T00:41:02;101970;;;22.8;41
77954;BME280;67151;52.544;6.034;2023-05-14T00:41:17;101970;;;22.8;41
77954;BME280;67151;52.544;6.034;2023-05-14T00:41:32;101970;;;22.8;41
77954;BME280;67151;52.544;6.034;2023-05-14T00:41:47;101970;;;22.8;41
77954;BME280;67151;52.544;6.034;2023-05-14T00:42:04;101960;;;22.8;41
77954;BME280;67151;52.544;6.034;2023-05-14T00:42:17;101970;;;22.8;41.1
77954;BME280;67151;52.544;6.034;2023-05-14T00:42:32;101960;;;22.8;41
77954;BME280;67151;52.544;6.034;2023-05-14T00:42:47;101960;;;22.8;41.1
77954;BME280;67151;52.544;6.034;2023-05-14T00:43:02;101960;;;22.9;41.1
77954;BME280;67151;52.544;6.034;2023-05-14T00:43:17;101960;;;22.8;41.1
77954;BME280;67151;52.544;6.034;2023-05-14T00:43:32;101960;;;22.8;41.1
77954;BME280;67151;52.544;6.034;2023-05-14T00:43:47;101960;;;22.8;41
77954;BME280;67151;52.544;6.034;2023-05-14T00:44:03;101960;;;22.8;41.1
77954;BME280;67151;52.544;6.034;2023-05-14T00:44:17;101960;;;22.8;41.1
77954;BME280;67151;52.544;6.034;2023-05-14T00:44:32;101960;;;22.8;41.1
77954;BME280;67151;52.544;6.034;2023-05-14T00:44:47;101970;;;22.8;41.1
77954;BME280;67151;52.544;6.034;2023-05-14T00:45:02;101960;;;22.8;41
77954;BME280;67151;52.544;6.034;2023-05-14T00:45:17;101960;;;22.8;41
77954;BME280;67151;52.544;6.034;2023-05-14T00:45:32;101960;;;22.8;41
77954;BME280;67151;52.544;6.034;2023-05-14T00:45:47;101970;;;22.8;41
77954;BME280;67151;52.544;6.034;2023-05-14T00:46:02;101960;;;22.8;41.1
77954;BME280;67151;52.544;6.034;2023-05-14T00:46:17;101960;;;22.8;41.1
77954;BME280;67151;52.544;6.034;2023-05-14T00:46:32;101960;;;22.8;41.1
77954;BME280;67151;52.544;6.034;2023-05-14T00:46:47;101960;;;22.8;41.1
77954;BME280;67151;52.544;6.034;2023-05-14T00:47:02;101960;;;22.8;41.1
77954;BME280;67151;52.544;6.034;2023-05-14T00:47:17;101960;;;22.8;41.1
77954;BME280;67151;52.544;6.034;2023-05-14T00:47:32;101960;;;22.8;41.1
77954;BME280;67151;52.544;6.034;2023-05-14T00:47:47;101960;;;22.8;41.1
77954;BME280;67151;52.544;6.034;2023-05-14T00:48:02;101960;;;22.8;41.1
77954;BME280;67151;52.544;6.034;2023-05-14T00:48:17;101970;;;22.8;41.1
77954;BME280;67151;52.544;6.034;2023-05-14T00:48:32;101960;;;22.8;41.1
77954;BME280;67151;52.544;6.034;2023-05-14T00:48:47;101960;;;22.8;41.1
77954;BME280;67151;52.544;6.034;2023-05-14T00:49:02;101960;;;22.8;41.1
77954;BME280;67151;52.544;6.034;2023-05-14T00:49:17;101950;;;22.8;41.1
77954;BME280;67151;52.544;6.034;2023-05-14T00:49:32;101960;;;22.8;41
77954;BME280;67151;52.544;6.034;2023-05-14T00:49:47;101950;;;22.8;41.1
77954;BME280;67151;52.544;6.034;2023-05-14T00:50:02;101960;;;22.8;41.1
77954;BME280;67151;52.544;6.034;2023-05-14T00:50:17;101950;;;22.8;41.2
77954;BME280;67151;52.544;6.034;2023-05-14T00:50:32;101950;;;22.8;41.2
77954;BME280;67151;52.544;6.034;2023-05-14T00:50:47;101960;;;22.8;41.2
77954;BME280;67151;52.544;6.034;2023-05-14T00:51:02;101950;;;22.8;41.2
77954;BME280;67151;52.544;6.034;2023-05-14T00:51:17;101950;;;22.8;41.2
77954;BME280;67151;52.544;6.034;2023-05-14T00:51:32;101950;;;22.8;41.1
77954;BME280;67151;52.544;6.034;2023-05-14T00:51:47;101950;;;22.8;41.1
77954;BME280;67151;52.544;6.034;2023-05-14T00:52:02;101950;;;22.8;41.1
77954;BME280;67151;52.544;6.034;2023-05-14T00:52:17;101950;;;22.8;41.1
77954;BME280;67151;52.544;6.034;2023-05-14T00:52:32;101950;;;22.8;41.1
77954;BME280;67151;52.544;6.034;2023-05-14T00:52:47;101950;;;22.8;41.1
77954;BME280;67151;52.544;6.034;2023-05-14T00:53:02;101960;;;22.8;41.1
77954;BME280;67151;52.544;6.034;2023-05-14T00:53:17;101950;;;22.8;41.1
77954;BME280;67151;52.544;6.034;2023-05-14T00:53:32;101950;;;22.8;41.2
77954;BME280;67151;52.544;6.034;2023-05-14T00:53:47;101960;;;22.8;41.2
77954;BME280;67151;52.544;6.034;2023-05-14T00:54:02;101960;;;22.8;41.2
77954;BME280;67151;52.544;6.034;2023-05-14T00:54:17;101950;;;22.8;41.1
77954;BME280;67151;52.544;6.034;2023-05-14T00:54:32;101960;;;22.8;41.1
77954;BME280;67151;52.544;6.034;2023-05-14T00:54:47;101950;;;22.8;41.1
77954;BME280;67151;52.544;6.034;2023-05-14T00:55:02;101950;;;22.8;41.4
77954;BME280;67151;52.544;6.034;2023-05-14T00:55:17;101950;;;22.8;41.2
77954;BME280;67151;52.544;6.034;2023-05-14T00:55:32;101960;;;22.8;41.1
77954;BME280;67151;52.544;6.034;2023-05-14T00:55:47;101950;;;22.8;41.1
77954;BME280;67151;52.544;6.034;2023-05-14T00:56:02;101950;;;22.8;41.2
77954;BME280;67151;52.544;6.034;2023-05-14T00:56:17;101950;;;22.8;41.1
77954;BME280;67151;52.544;6.034;2023-05-14T00:56:32;101950;;;22.8;41.2
77954;BME280;67151;52.544;6.034;2023-05-14T00:56:47;101950;;;22.8;41.1
77954;BME280;67151;52.544;6.034;2023-05-14T00:57:02;101950;;;22.8;41.1
77954;BME280;67151;52.544;6.034;2023-05-14T00:57:17;101950;;;22.8;41.1
77954;BME280;67151;52.544;6.034;2023-05-14T00:57:32;101950;;;22.8;41.1
77954;BME280;67151;52.544;6.034;2023-05-14T00:57:47;101950;;;22.8;41.1
77954;BME280;67151;52.544;6.034;2023-05-14T00:58:03;101950;;;22.8;41.1
77954;BME280;67151;52.544;6.034;2023-05-14T00:58:17;101950;;;22.8;41.1
77954;BME280;67151;52.544;6.034;2023-05-14T00:58:32;101960;;;22.8;41.1
77954;BME280;67151;52.544;6.034;2023-05-14T00:58:47;101960;;;22.8;41.1
77954;BME280;67151;52.544;6.034;2023-05-14T00:59:02;101950;;;22.8;41
77954;BME280;67151;52.544;6.034;2023-05-14T00:59:17;101950;;;22.8;41
77954;BME280;67151;52.544;6.034;2023-05-14T00:59:32;101960;;;22.8;41.2
77954;BME280;67151;52.544;6.034;2023-05-14T00:59:47;101950;;;22.8;41.1
77954;BME280;67151;52.544;6.034;2023-05-14T01:00:02;101950;;;22.8;41.1
77954;BME280;67151;52.544;6.034;2023-05-14T01:00:17;101950;;;22.8;41.1
77954;BME280;67151;52.544;6.034;2023-05-14T01:00:32;101950;;;22.8;40.9
77954;BME280;67151;52.544;6.034;2023-05-14T01:00:47;101950;;;22.8;40.9
77954;BME280;67151;52.544;6.034;2023-05-14T01:01:02;101950;;;22.8;41
77954;BME280;67151;52.544;6.034;2023-05-14T01:01:17;101960;;;22.8;41
77954;BME280;67151;52.544;6.034;2023-05-14T01:01:32;101950;;;22.8;41.1
77954;BME280;67151;52.544;6.034;2023-05-14T01:01:47;101960;;;22.8;41.1
77954;BME280;67151;52.544;6.034;2023-05-14T01:02:02;101950;;;22.8;41
77954;BME280;67151;52.544;6.034;2023-05-14T01:02:17;101950;;;22.8;41.1
77954;BME280;67151;52.544;6.034;2023-05-14T01:02:32;101950;;;22.8;41.1
77954;BME280;67151;52.544;6.034;2023-05-14T01:02:47;101950;;;22.8;41.1
77954;BME280;67151;52.544;6.034;2023-05-14T01:03:02;101950;;;22.8;41.1
77954;BME280;67151;52.544;6.034;2023-05-14T01:03:17;101950;;;22.8;41.1
77954;BME280;67151;52.544;6.034;2023-05-14T01:03:32;101950;;;22.8;41
77954;BME280;67151;52.544;6.034;2023-05-14T01:03:47;101950;;;22.8;41
77954;BME280;67151;52.544;6.034;2023-05-14T01:04:02;101960;;;22.8;41
77954;BME280;67151;52.544;6.034;2023-05-14T01:04:17;101950;;;22.8;41
77954;BME280;67151;52.544;6.034;2023-05-14T01:04:32;101960;;;22.8;41
77954;BME280;67151;52.544;6.034;2023-05-14T01:04:47;101960;;;22.8;41.1
77954;BME280;67151;52.544;6.034;2023-05-14T01:05:02;101950;;;22.8;41.1
77954;BME280;67151;52.544;6.034;2023-05-14T01:05:17;101950;;;22.8;41
77954;BME280;67151;52.544;6.034;2023-05-14T01:05:34;101950;;;22.8;41
77954;BME280;67151;52.544;6.034;2023-05-14T01:05:50;101960;;;22.8;41.1
77954;BME280;67151;52.544;6.034;2023-05-14T01:06:04;101950;;;22.8;41.1
77954;BME280;67151;52.544;6.034;2023-05-14T01:06:19;101950;;;22.8;41.1
77954;BME280;67151;52.544;6.034;2023-05-14T01:06:34;101950;;;22.8;41
77954;BME280;67151;52.544;6.034;2023-05-14T01:06:49;101940;;;22.8;41.1
77954;BME280;67151;52.544;6.034;2023-05-14T01:07:05;101950;;;22.8;41.1
77954;BME280;67151;52.544;6.034;2023-05-14T01:07:19;101940;;;22.8;41.1
77954;BME280;67151;52.544;6.034;2023-05-14T01:07:34;101950;;;22.8;41.1
77954;BME280;67151;52.544;6.034;2023-05-14T01:07:48;101950;;;22.8;41.1
77954;BME280;67151;52.544;6.034;2023-05-14T01:08:03;101940;;;22.8;41.1
77954;BME280;67151;52.544;6.034;2023-05-14T01:08:20;101950;;;22.8;41.1
77954;BME280;67151;52.544;6.034;2023-05-14T01:08:34;101950;;;22.7;41.2
77954;BME280;67151;52.544;6.034;2023-05-14T01:08:49;101950;;;22.7;41.1
77954;BME280;67151;52.544;6.034;2023-05-14T01:09:04;101950;;;22.8;41.1
77954;BME280;67151;52.544;6.034;2023-05-14T01:09:18;101950;;;22.8;41.1
77954;BME280;67151;52.544;6.034;2023-05-14T01:09:35;101950;;;22.8;41
77954;BME280;67151;52.544;6.034;2023-05-14T01:09:48;101940;;;22.8;41
77954;BME280;67151;52.544;6.034;2023-05-14T01:10:04;101950;;;22.7;41.1
77954;BME280;67151;52.544;6.034;2023-05-14T01:10:20;101950;;;22.7;41.2
77954;BME280;67151;52.544;6.034;2023-05-14T01:10:34;101950;;;22.7;41.2
77954;BME280;67151;52.544;6.034;2023-05-14T01:10:48;101940;;;22.7;41.1
77954;BME280;67151;52.544;6.034;2023-05-14T01:11:04;101950;;;22.7;41.1
77954;BME280;67151;52.544;6.034;2023-05-14T01:11:18;101950;;;22.7;41.1
77954;BME280;67151;52.544;6.034;2023-05-14T01:11:32;101950;;;22.7;41.1
77954;BME280;67151;52.544;6.034;2023-05-14T01:11:50;101950;;;22.7;41.1
77954;BME280;67151;52.544;6.034;2023-05-14T01:12:05;101960;;;22.8;41
77954;BME280;67151;52.544;6.034;2023-05-14T01:12:18;101950;;;22.7;41
77954;BME280;67151;52.544;6.034;2023-05-14T01:12:33;101940;;;22.8;41
77954;BME280;67151;52.544;6.034;2023-05-14T01:12:49;101950;;;22.8;41
77954;BME280;67151;52.544;6.034;2023-05-14T01:13:03;101950;;;22.8;41
77954;BME280;67151;52.544;6.034;2023-05-14T01:13:18;101950;;;22.8;40.9
77954;BME280;67151;52.544;6.034;2023-05-14T01:13:33;101960;;;22.8;41
77954;BME280;67151;52.544;6.034;2023-05-14T01:13:50;101950;;;22.7;41
77954;BME280;67151;52.544;6.034;2023-05-14T01:14:04;101950;;;22.8;41
77954;BME280;67151;52.544;6.034;2023-05-14T01:14:19;101950;;;22.8;41
77954;BME280;67151;52.544;6.034;2023-05-14T01:14:33;101950;;;22.8;41
77954;BME280;67151;52.544;6.034;2023-05-14T01:14:51;101950;;;22.8;41.1
77954;BME280;67151;52.544;6.034;2023-05-14T01:15:04;101950;;;22.8;41
77954;BME280;67151;52.544;6.034;2023-05-14T01:15:18;101950;;;22.8;41
77954;BME280;67151;52.544;6.034;2023-05-14T01:15:32;101950;;;22.8;41
77954;BME280;67151;52.544;6.034;2023-05-14T01:15:47;101950;;;22.8;41
77954;BME280;67151;52.544;6.034;2023-05-14T01:16:02;101950;;;22.8;41
77954;BME280;67151;52.544;6.034;2023-05-14T01:16:17;101950;;;22.8;41.1
77954;BME280;67151;52.544;6.034;2023-05-14T01:16:32;101950;;;22.8;41.1
77954;BME280;67151;52.544;6.034;2023-05-14T01:16:47;101950;;;22.8;41
77954;BME280;67151;52.544;6.034;2023-05-14T01:17:03;101950;;;22.8;41
77954;BME280;67151;52.544;6.034;2023-05-14T01:17:17;101940;;;22.8;41
77954;BME280;67151;52.544;6.034;2023-05-14T01:17:32;101950;;;22.8;41
77954;BME280;67151;52.544;6.034;2023-05-14T01:17:49;101940;;;22.8;41.1
77954;BME280;67151;52.544;6.034;2023-05-14T01:18:02;101940;;;22.7;41.1
77954;BME280;67151;52.544;6.034;2023-05-14T01:18:17;101950;;;22.8;41.2
77954;BME280;67151;52.544;6.034;2023-05-14T01:18:32;101950;;;22.8;41.2
77954;BME280;67151;52.544;6.034;2023-05-14T01:18:47;101950;;;22.8;41.2
77954;BME280;67151;52.544;6.034;2023-05-14T01:19:02;101950;;;22.8;41.2
77954;BME280;67151;52.544;6.034;2023-05-14T01:19:20;101950;;;22.8;41
77954;BME280;67151;52.544;6.034;2023-05-14T01:19:41;101950;;;22.7;41
77954;BME280;67151;52.544;6.034;2023-05-14T01:19:47;101950;;;22.7;41
77954;BME280;67151;52.544;6.034;2023-05-14T01:20:02;101950;;;22.7;41.1
77954;BME280;67151;52.544;6.034;2023-05-14T01:20:17;101950;;;22.7;41.2
77954;BME280;67151;52.544;6.034;2023-05-14T01:20:32;101950;;;22.7;41.2
77954;BME280;67151;52.544;6.034;2023-05-14T01:20:48;101950;;;22.8;41.2
77954;BME280;67151;52.544;6.034;2023-05-14T01:21:02;101950;;;22.8;41.2
77954;BME280;67151;52.544;6.034;2023-05-14T01:21:33;101950;;;22.8;41
77954;BME280;67151;52.544;6.034;2023-05-14T01:21:47;101950;;;22.8;41
77954;BME280;67151;52.544;6.034;2023-05-14T01:22:02;101950;;;22.8;41
77954;BME280;67151;52.544;6.034;2023-05-14T01:22:17;101950;;;22.8;41
77954;BME280;67151;52.544;6.034;2023-05-14T01:22:32;101950;;;22.8;41
77954;BME280;67151;52.544;6.034;2023-05-14T01:22:47;101940;;;22.8;41
77954;BME280;67151;52.544;6.034;2023-05-14T01:23:02;101940;;;22.8;41
77954;BME280;67151;52.544;6.034;2023-05-14T01:23:17;101950;;;22.8;41.1
77954;BME280;67151;52.544;6.034;2023-05-14T01:23:32;101950;;;22.8;41.1
77954;BME280;67151;52.544;6.034;2023-05-14T01:23:47;101950;;;22.8;41
77954;BME280;67151;52.544;6.034;2023-05-14T01:24:02;101950;;;22.8;40.9
77954;BME280;67151;52.544;6.034;2023-05-14T01:24:17;101950;;;22.8;40.9
77954;BME280;67151;52.544;6.034;2023-05-14T01:24:32;101950;;;22.8;40.8
77954;BME280;67151;52.544;6.034;2023-05-14T01:24:47;101950;;;22.8;40.8
77954;BME280;67151;52.544;6.034;2023-05-14T01:25:02;101950;;;22.8;40.8